sensor_id;sensor_type;location;lat;lon;timestamp;P1;durP1;ratioP1;P2;durP2;ratioP2
11121;SDS011;5615;49.304;10.576;2023-01-19T00:01:42;39.40;;;22.67;;
11121;SDS011;5615;49.304;10.576;2023-01-19T00:04:09;44.40;;;22.93;;
11121;SDS011;5615;49.304;10.576;2023-01-19T00:06:36;42.40;;;23.40;;
11121;SDS011;5615;49.304;10.576;2023-01-19T00:09:02;41.37;;;23.23;;
11121;SDS011;5615;49.304;10.576;2023-01-19T00:11:29;43.33;;;23.23;;
11121;SDS011;5615;49.304;10.576;2023-01-19T00:13:56;44.70;;;24.20;;
11121;SDS011;5615;49.304;10.576;2023-01-19T00:16:23;42.40;;;24.27;;
11121;SDS011;5615;49.304;10.576;2023-01-19T00:18:51;40.67;;;23.10;;
11121;SDS011;5615;49.304;10.576;2023-01-19T00:21:18;42.70;;;24.50;;
11121;SDS011;5615;49.304;10.576;2023-01-19T00:23:45;42.63;;;24.30;;
11121;SDS011;5615;49.304;10.576;2023-01-19T00:26:12;46.03;;;25.07;;
11121;SDS011;5615;49.304;10.576;2023-01-19T00:28:40;45.63;;;25.00;;
11121;SDS011;5615;49.304;10.576;2023-01-19T00:31:06;43.77;;;25.47;;
11121;SDS011;5615;49.304;10.576;2023-01-19T00:33:33;46.70;;;25.23;;
11121;SDS011;5615;49.304;10.576;2023-01-19T00:36:01;48.07;;;25.60;;
11121;SDS011;5615;49.304;10.576;2023-01-19T00:38:28;50.33;;;26.00;;
11121;SDS011;5615;49.304;10.576;2023-01-19T00:40:55;45.50;;;26.37;;
11121;SDS011;5615;49.304;10.576;2023-01-19T00:43:21;46.30;;;26.57;;
11121;SDS011;5615;49.304;10.576;2023-01-19T00:45:47;51.47;;;26.97;;
11121;SDS011;5615;49.304;10.576;2023-01-19T00:48:14;44.07;;;24.20;;
11121;SDS011;5615;49.304;10.576;2023-01-19T00:50:40;50.20;;;26.13;;
11121;SDS011;5615;49.304;10.576;2023-01-19T00:53:08;47.73;;;26.57;;
11121;SDS011;5615;49.304;10.576;2023-01-19T00:55:35;45.90;;;25.17;;
11121;SDS011;5615;49.304;10.576;2023-01-19T00:58:01;45.60;;;25.10;;
11121;SDS011;5615;49.304;10.576;2023-01-19T01:00:28;54.27;;;28.33;;
11121;SDS011;5615;49.304;10.576;2023-01-19T01:02:55;44.23;;;24.93;;
11121;SDS011;5615;49.304;10.576;2023-01-19T01:05:21;44.30;;;24.50;;
11121;SDS011;5615;49.304;10.576;2023-01-19T01:07:48;43.23;;;24.07;;
11121;SDS011;5615;49.304;10.576;2023-01-19T01:10:17;46.70;;;25.37;;
11121;SDS011;5615;49.304;10.576;2023-01-19T01:12:45;42.83;;;23.20;;
11121;SDS011;5615;49.304;10.576;2023-01-19T01:15:13;40.57;;;21.27;;
11121;SDS011;5615;49.304;10.576;2023-01-19T01:17:41;40.90;;;22.03;;
11121;SDS011;5615;49.304;10.576;2023-01-19T01:20:12;39.93;;;22.70;;
11121;SDS011;5615;49.304;10.576;2023-01-19T01:22:40;39.87;;;21.27;;
11121;SDS011;5615;49.304;10.576;2023-01-19T01:25:09;39.30;;;21.83;;
11121;SDS011;5615;49.304;10.576;2023-01-19T01:27:37;40.47;;;21.73;;
11121;SDS011;5615;49.304;10.576;2023-01-19T01:30:04;37.97;;;21.63;;
11121;SDS011;5615;49.304;10.576;2023-01-19T01:32:32;41.10;;;22.40;;
11121;SDS011;5615;49.304;10.576;2023-01-19T01:34:58;42.17;;;22.20;;
11121;SDS011;5615;49.304;10.576;2023-01-19T01:37:25;39.17;;;22.40;;
11121;SDS011;5615;49.304;10.576;2023-01-19T01:39:52;42.97;;;22.80;;
11121;SDS011;5615;49.304;10.576;2023-01-19T01:42:19;39.63;;;22.23;;
11121;SDS011;5615;49.304;10.576;2023-01-19T01:44:52;70.27;;;30.90;;
11121;SDS011;5615;49.304;10.576;2023-01-19T01:47:22;73.07;;;32.57;;
11121;SDS011;5615;49.304;10.576;2023-01-19T01:49:54;70.50;;;31.57;;
11121;SDS011;5615;49.304;10.576;2023-01-19T01:52:27;44.90;;;23.97;;
11121;SDS011;5615;49.304;10.576;2023-01-19T01:54:57;47.50;;;23.70;;
11121;SDS011;5615;49.304;10.576;2023-01-19T01:57:24;41.87;;;23.10;;
11121;SDS011;5615;49.304;10.576;2023-01-19T01:59:53;40.87;;;23.57;;
11121;SDS011;5615;49.304;10.576;2023-01-19T02:02:23;232.13;;;84.50;;
11121;SDS011;5615;49.304;10.576;2023-01-19T02:05:11;69.27;;;32.43;;
11121;SDS011;5615;49.304;10.576;2023-01-19T02:07:42;82.53;;;35.80;;
11121;SDS011;5615;49.304;10.576;2023-01-19T02:10:30;53.07;;;27.73;;
11121;SDS011;5615;49.304;10.576;2023-01-19T02:13:14;49.83;;;26.47;;
11121;SDS011;5615;49.304;10.576;2023-01-19T02:15:49;44.43;;;22.40;;
11121;SDS011;5615;49.304;10.576;2023-01-19T02:18:16;54.13;;;27.83;;
11121;SDS011;5615;49.304;10.576;2023-01-19T02:20:46;45.37;;;25.60;;
11121;SDS011;5615;49.304;10.576;2023-01-19T02:23:19;186.67;;;64.73;;
11121;SDS011;5615;49.304;10.576;2023-01-19T02:25:56;43.90;;;24.60;;
11121;SDS011;5615;49.304;10.576;2023-01-19T02:28:24;43.27;;;24.00;;
11121;SDS011;5615;49.304;10.576;2023-01-19T02:30:52;39.13;;;22.33;;
11121;SDS011;5615;49.304;10.576;2023-01-19T02:33:19;38.20;;;22.83;;
11121;SDS011;5615;49.304;10.576;2023-01-19T02:35:46;46.57;;;26.73;;
11121;SDS011;5615;49.304;10.576;2023-01-19T02:38:16;64.20;;;38.37;;
11121;SDS011;5615;49.304;10.576;2023-01-19T02:40:46;45.33;;;23.63;;
11121;SDS011;5615;49.304;10.576;2023-01-19T02:43:14;41.73;;;24.57;;
11121;SDS011;5615;49.304;10.576;2023-01-19T02:45:44;42.97;;;25.40;;
11121;SDS011;5615;49.304;10.576;2023-01-19T02:48:12;37.50;;;22.73;;
11121;SDS011;5615;49.304;10.576;2023-01-19T02:50:41;38.27;;;22.33;;
11121;SDS011;5615;49.304;10.576;2023-01-19T02:53:20;35.53;;;21.67;;
11121;SDS011;5615;49.304;10.576;2023-01-19T02:56:04;37.80;;;21.13;;
11121;SDS011;5615;49.304;10.576;2023-01-19T02:58:43;37.63;;;22.53;;
11121;SDS011;5615;49.304;10.576;2023-01-19T03:01:17;35.27;;;22.67;;
11121;SDS011;5615;49.304;10.576;2023-01-19T03:03:50;37.67;;;22.17;;
11121;SDS011;5615;49.304;10.576;2023-01-19T03:06:24;38.67;;;22.33;;
11121;SDS011;5615;49.304;10.576;2023-01-19T03:09:02;40.23;;;22.87;;
11121;SDS011;5615;49.304;10.576;2023-01-19T03:11:37;38.27;;;21.67;;
11121;SDS011;5615;49.304;10.576;2023-01-19T03:14:08;36.57;;;21.37;;
11121;SDS011;5615;49.304;10.576;2023-01-19T03:16:38;39.23;;;21.93;;
11121;SDS011;5615;49.304;10.576;2023-01-19T03:19:08;44.00;;;22.43;;
11121;SDS011;5615;49.304;10.576;2023-01-19T03:21:38;40.97;;;22.80;;
11121;SDS011;5615;49.304;10.576;2023-01-19T03:24:09;36.23;;;21.30;;
11121;SDS011;5615;49.304;10.576;2023-01-19T03:26:39;39.50;;;23.13;;
11121;SDS011;5615;49.304;10.576;2023-01-19T03:29:09;40.63;;;22.77;;
11121;SDS011;5615;49.304;10.576;2023-01-19T03:31:38;37.63;;;22.90;;
11121;SDS011;5615;49.304;10.576;2023-01-19T03:34:08;40.77;;;22.93;;
11121;SDS011;5615;49.304;10.576;2023-01-19T03:36:39;41.77;;;23.10;;
11121;SDS011;5615;49.304;10.576;2023-01-19T03:39:08;38.20;;;22.40;;
11121;SDS011;5615;49.304;10.576;2023-01-19T03:41:38;42.57;;;23.17;;
11121;SDS011;5615;49.304;10.576;2023-01-19T03:44:08;40.60;;;22.57;;
11121;SDS011;5615;49.304;10.576;2023-01-19T03:46:36;39.70;;;23.33;;
11121;SDS011;5615;49.304;10.576;2023-01-19T03:49:04;40.87;;;23.70;;
11121;SDS011;5615;49.304;10.576;2023-01-19T03:51:33;44.00;;;24.97;;
11121;SDS011;5615;49.304;10.576;2023-01-19T03:54:01;45.00;;;23.57;;
11121;SDS011;5615;49.304;10.576;2023-01-19T03:56:28;48.40;;;25.33;;
11121;SDS011;5615;49.304;10.576;2023-01-19T03:58:56;41.50;;;24.17;;
11121;SDS011;5615;49.304;10.576;2023-01-19T04:01:23;41.03;;;24.13;;
11121;SDS011;5615;49.304;10.576;2023-01-19T04:03:50;36.77;;;21.37;;
11121;SDS011;5615;49.304;10.576;2023-01-19T04:06:17;39.53;;;22.97;;
11121;SDS011;5615;49.304;10.576;2023-01-19T04:08:46;39.73;;;23.07;;
11121;SDS011;5615;49.304;10.576;2023-01-19T04:11:13;42.70;;;22.93;;
11121;SDS011;5615;49.304;10.576;2023-01-19T04:13:40;44.47;;;24.73;;
11121;SDS011;5615;49.304;10.576;2023-01-19T04:16:09;49.73;;;24.77;;
11121;SDS011;5615;49.304;10.576;2023-01-19T04:18:36;48.03;;;25.13;;
11121;SDS011;5615;49.304;10.576;2023-01-19T04:21:04;45.07;;;25.27;;
11121;SDS011;5615;49.304;10.576;2023-01-19T04:23:32;46.53;;;25.13;;
11121;SDS011;5615;49.304;10.576;2023-01-19T04:25:59;43.07;;;24.27;;
11121;SDS011;5615;49.304;10.576;2023-01-19T04:28:27;49.30;;;26.30;;
11121;SDS011;5615;49.304;10.576;2023-01-19T04:30:54;50.97;;;26.03;;
11121;SDS011;5615;49.304;10.576;2023-01-19T04:33:22;44.23;;;25.87;;
11121;SDS011;5615;49.304;10.576;2023-01-19T04:35:50;49.33;;;26.50;;
11121;SDS011;5615;49.304;10.576;2023-01-19T04:38:17;47.77;;;25.97;;
11121;SDS011;5615;49.304;10.576;2023-01-19T04:40:44;48.90;;;26.17;;
11121;SDS011;5615;49.304;10.576;2023-01-19T04:43:11;47.33;;;26.40;;
11121;SDS011;5615;49.304;10.576;2023-01-19T04:45:38;53.17;;;27.77;;
11121;SDS011;5615;49.304;10.576;2023-01-19T04:48:05;54.80;;;28.77;;
11121;SDS011;5615;49.304;10.576;2023-01-19T04:50:33;53.43;;;28.10;;
11121;SDS011;5615;49.304;10.576;2023-01-19T04:52:59;59.47;;;31.13;;
11121;SDS011;5615;49.304;10.576;2023-01-19T04:55:26;51.57;;;27.83;;
11121;SDS011;5615;49.304;10.576;2023-01-19T04:57:52;49.87;;;28.30;;
11121;SDS011;5615;49.304;10.576;2023-01-19T05:00:20;56.20;;;28.87;;
11121;SDS011;5615;49.304;10.576;2023-01-19T05:02:47;54.93;;;29.97;;
11121;SDS011;5615;49.304;10.576;2023-01-19T05:05:14;48.50;;;26.83;;
11121;SDS011;5615;49.304;10.576;2023-01-19T05:07:42;47.23;;;27.17;;
11121;SDS011;5615;49.304;10.576;2023-01-19T05:10:10;45.63;;;27.23;;
11121;SDS011;5615;49.304;10.576;2023-01-19T05:12:36;53.83;;;28.33;;
11121;SDS011;5615;49.304;10.576;2023-01-19T05:15:03;46.87;;;25.77;;
11121;SDS011;5615;49.304;10.576;2023-01-19T05:17:31;42.50;;;25.37;;
11121;SDS011;5615;49.304;10.576;2023-01-19T05:19:58;49.10;;;24.70;;
11121;SDS011;5615;49.304;10.576;2023-01-19T05:22:25;42.73;;;25.00;;
11121;SDS011;5615;49.304;10.576;2023-01-19T05:24:53;49.80;;;24.93;;
11121;SDS011;5615;49.304;10.576;2023-01-19T05:27:19;49.87;;;25.60;;
11121;SDS011;5615;49.304;10.576;2023-01-19T05:29:46;47.10;;;26.20;;
11121;SDS011;5615;49.304;10.576;2023-01-19T05:32:12;45.40;;;25.80;;
11121;SDS011;5615;49.304;10.576;2023-01-19T05:34:39;44.90;;;25.73;;
11121;SDS011;5615;49.304;10.576;2023-01-19T05:37:05;50.97;;;27.20;;
11121;SDS011;5615;49.304;10.576;2023-01-19T05:39:32;53.40;;;27.40;;
11121;SDS011;5615;49.304;10.576;2023-01-19T05:42:00;53.90;;;27.73;;
11121;SDS011;5615;49.304;10.576;2023-01-19T05:44:27;46.27;;;27.03;;
11121;SDS011;5615;49.304;10.576;2023-01-19T05:46:53;47.73;;;26.50;;
11121;SDS011;5615;49.304;10.576;2023-01-19T05:49:20;52.57;;;28.40;;
11121;SDS011;5615;49.304;10.576;2023-01-19T05:51:46;44.63;;;26.70;;
11121;SDS011;5615;49.304;10.576;2023-01-19T05:54:13;48.50;;;26.50;;
11121;SDS011;5615;49.304;10.576;2023-01-19T05:56:40;53.43;;;27.90;;
11121;SDS011;5615;49.304;10.576;2023-01-19T05:59:08;50.57;;;27.73;;
11121;SDS011;5615;49.304;10.576;2023-01-19T06:01:35;48.93;;;27.17;;
11121;SDS011;5615;49.304;10.576;2023-01-19T06:04:02;45.90;;;27.13;;
11121;SDS011;5615;49.304;10.576;2023-01-19T06:06:29;48.60;;;28.27;;
11121;SDS011;5615;49.304;10.576;2023-01-19T06:08:56;68.07;;;34.37;;
11121;SDS011;5615;49.304;10.576;2023-01-19T06:11:22;45.97;;;27.90;;
11121;SDS011;5615;49.304;10.576;2023-01-19T06:13:50;41.80;;;24.67;;
11121;SDS011;5615;49.304;10.576;2023-01-19T06:16:18;41.93;;;25.57;;
11121;SDS011;5615;49.304;10.576;2023-01-19T06:18:44;41.20;;;23.57;;
11121;SDS011;5615;49.304;10.576;2023-01-19T06:21:11;42.53;;;24.77;;
11121;SDS011;5615;49.304;10.576;2023-01-19T06:23:38;39.63;;;23.17;;
11121;SDS011;5615;49.304;10.576;2023-01-19T06:26:05;39.90;;;23.10;;
11121;SDS011;5615;49.304;10.576;2023-01-19T06:28:32;42.00;;;24.23;;
11121;SDS011;5615;49.304;10.576;2023-01-19T06:30:59;50.10;;;25.90;;
11121;SDS011;5615;49.304;10.576;2023-01-19T06:33:28;43.43;;;23.87;;
11121;SDS011;5615;49.304;10.576;2023-01-19T06:35:55;40.67;;;22.23;;
11121;SDS011;5615;49.304;10.576;2023-01-19T06:38:21;44.73;;;24.03;;
11121;SDS011;5615;49.304;10.576;2023-01-19T06:40:51;38.13;;;23.53;;
11121;SDS011;5615;49.304;10.576;2023-01-19T06:43:19;70.30;;;41.57;;
11121;SDS011;5615;49.304;10.576;2023-01-19T06:45:46;94.20;;;57.47;;
11121;SDS011;5615;49.304;10.576;2023-01-19T06:48:14;72.57;;;45.17;;
11121;SDS011;5615;49.304;10.576;2023-01-19T06:50:43;62.50;;;39.47;;
11121;SDS011;5615;49.304;10.576;2023-01-19T06:53:10;55.83;;;35.53;;
11121;SDS011;5615;49.304;10.576;2023-01-19T06:55:36;52.47;;;32.70;;
11121;SDS011;5615;49.304;10.576;2023-01-19T06:58:03;36.63;;;19.30;;
11121;SDS011;5615;49.304;10.576;2023-01-19T07:00:30;33.83;;;21.73;;
11121;SDS011;5615;49.304;10.576;2023-01-19T07:02:57;39.60;;;21.50;;
11121;SDS011;5615;49.304;10.576;2023-01-19T07:05:23;33.80;;;20.10;;
11121;SDS011;5615;49.304;10.576;2023-01-19T07:07:52;33.77;;;21.13;;
11121;SDS011;5615;49.304;10.576;2023-01-19T07:10:19;40.23;;;20.60;;
11121;SDS011;5615;49.304;10.576;2023-01-19T07:12:46;35.17;;;20.60;;
11121;SDS011;5615;49.304;10.576;2023-01-19T07:15:13;33.57;;;20.17;;
11121;SDS011;5615;49.304;10.576;2023-01-19T07:17:40;35.13;;;20.43;;
11121;SDS011;5615;49.304;10.576;2023-01-19T07:20:07;39.33;;;21.47;;
11121;SDS011;5615;49.304;10.576;2023-01-19T07:22:37;41.23;;;21.40;;
11121;SDS011;5615;49.304;10.576;2023-01-19T07:25:05;37.37;;;22.57;;
11121;SDS011;5615;49.304;10.576;2023-01-19T07:27:32;39.27;;;21.27;;
11121;SDS011;5615;49.304;10.576;2023-01-19T07:29:59;35.20;;;21.20;;
11121;SDS011;5615;49.304;10.576;2023-01-19T07:32:25;38.67;;;21.83;;
11121;SDS011;5615;49.304;10.576;2023-01-19T07:34:52;41.07;;;23.47;;
11121;SDS011;5615;49.304;10.576;2023-01-19T07:37:19;40.67;;;23.00;;
11121;SDS011;5615;49.304;10.576;2023-01-19T07:39:45;62.80;;;33.77;;
11121;SDS011;5615;49.304;10.576;2023-01-19T07:42:13;51.10;;;28.83;;
11121;SDS011;5615;49.304;10.576;2023-01-19T07:44:40;39.53;;;22.20;;
11121;SDS011;5615;49.304;10.576;2023-01-19T07:47:06;35.83;;;21.67;;
11121;SDS011;5615;49.304;10.576;2023-01-19T07:49:36;35.20;;;22.13;;
11121;SDS011;5615;49.304;10.576;2023-01-19T07:52:03;40.97;;;22.57;;
11121;SDS011;5615;49.304;10.576;2023-01-19T07:54:30;34.10;;;20.40;;
11121;SDS011;5615;49.304;10.576;2023-01-19T07:56:56;36.73;;;20.77;;
11121;SDS011;5615;49.304;10.576;2023-01-19T07:59:26;40.20;;;21.90;;
11121;SDS011;5615;49.304;10.576;2023-01-19T08:01:54;33.17;;;20.17;;
11121;SDS011;5615;49.304;10.576;2023-01-19T08:04:22;37.43;;;20.03;;
11121;SDS011;5615;49.304;10.576;2023-01-19T08:06:48;30.73;;;19.30;;
11121;SDS011;5615;49.304;10.576;2023-01-19T08:09:15;31.87;;;19.80;;
11121;SDS011;5615;49.304;10.576;2023-01-19T08:11:42;31.53;;;19.77;;
11121;SDS011;5615;49.304;10.576;2023-01-19T08:14:08;31.77;;;20.40;;
11121;SDS011;5615;49.304;10.576;2023-01-19T08:16:36;30.30;;;18.87;;
11121;SDS011;5615;49.304;10.576;2023-01-19T08:19:03;29.07;;;17.37;;
11121;SDS011;5615;49.304;10.576;2023-01-19T08:21:30;28.07;;;17.90;;
11121;SDS011;5615;49.304;10.576;2023-01-19T08:23:57;28.50;;;17.20;;
11121;SDS011;5615;49.304;10.576;2023-01-19T08:26:25;31.10;;;18.20;;
11121;SDS011;5615;49.304;10.576;2023-01-19T08:28:54;33.03;;;20.87;;
11121;SDS011;5615;49.304;10.576;2023-01-19T08:31:22;25.90;;;16.20;;
11121;SDS011;5615;49.304;10.576;2023-01-19T08:33:51;27.60;;;15.13;;
11121;SDS011;5615;49.304;10.576;2023-01-19T08:36:18;25.60;;;15.37;;
11121;SDS011;5615;49.304;10.576;2023-01-19T08:38:45;23.43;;;15.83;;
11121;SDS011;5615;49.304;10.576;2023-01-19T08:41:12;21.53;;;14.87;;
11121;SDS011;5615;49.304;10.576;2023-01-19T08:43:40;22.87;;;14.30;;
11121;SDS011;5615;49.304;10.576;2023-01-19T08:46:07;19.80;;;13.17;;
11121;SDS011;5615;49.304;10.576;2023-01-19T08:48:33;21.60;;;14.80;;
11121;SDS011;5615;49.304;10.576;2023-01-19T08:51:02;20.40;;;12.47;;
11121;SDS011;5615;49.304;10.576;2023-01-19T08:53:28;18.80;;;11.97;;
11121;SDS011;5615;49.304;10.576;2023-01-19T08:55:56;17.93;;;12.53;;
11121;SDS011;5615;49.304;10.576;2023-01-19T08:58:23;17.13;;;11.63;;
11121;SDS011;5615;49.304;10.576;2023-01-19T09:00:50;16.53;;;10.40;;
11121;SDS011;5615;49.304;10.576;2023-01-19T09:03:17;13.30;;;10.23;;
11121;SDS011;5615;49.304;10.576;2023-01-19T09:05:45;16.63;;;10.87;;
11121;SDS011;5615;49.304;10.576;2023-01-19T09:08:13;11.77;;;8.40;;
11121;SDS011;5615;49.304;10.576;2023-01-19T09:10:43;13.20;;;8.93;;
11121;SDS011;5615;49.304;10.576;2023-01-19T09:13:12;9.90;;;7.83;;
11121;SDS011;5615;49.304;10.576;2023-01-19T09:15:40;13.03;;;8.97;;
11121;SDS011;5615;49.304;10.576;2023-01-19T09:18:09;11.17;;;7.57;;
11121;SDS011;5615;49.304;10.576;2023-01-19T09:20:37;11.00;;;7.37;;
11121;SDS011;5615;49.304;10.576;2023-01-19T09:23:06;10.67;;;7.33;;
11121;SDS011;5615;49.304;10.576;2023-01-19T09:25:36;10.83;;;6.70;;
11121;SDS011;5615;49.304;10.576;2023-01-19T09:28:03;10.20;;;6.70;;
11121;SDS011;5615;49.304;10.576;2023-01-19T09:30:29;8.93;;;6.63;;
11121;SDS011;5615;49.304;10.576;2023-01-19T09:33:00;10.50;;;6.87;;
11121;SDS011;5615;49.304;10.576;2023-01-19T09:35:28;8.40;;;6.80;;
11121;SDS011;5615;49.304;10.576;2023-01-19T09:37:55;9.83;;;6.97;;
11121;SDS011;5615;49.304;10.576;2023-01-19T09:40:23;9.50;;;7.35;;
11121;SDS011;5615;49.304;10.576;2023-01-19T09:42:52;11.57;;;8.03;;
11121;SDS011;5615;49.304;10.576;2023-01-19T09:45:25;10.93;;;8.30;;
11121;SDS011;5615;49.304;10.576;2023-01-19T09:47:57;13.57;;;7.53;;
11121;SDS011;5615;49.304;10.576;2023-01-19T09:50:26;9.77;;;7.90;;
11121;SDS011;5615;49.304;10.576;2023-01-19T09:53:02;11.40;;;8.00;;
11121;SDS011;5615;49.304;10.576;2023-01-19T09:55:37;12.57;;;7.90;;
11121;SDS011;5615;49.304;10.576;2023-01-19T09:58:09;14.50;;;9.70;;
11121;SDS011;5615;49.304;10.576;2023-01-19T10:00:40;10.93;;;7.13;;
11121;SDS011;5615;49.304;10.576;2023-01-19T10:03:11;12.07;;;8.13;;
11121;SDS011;5615;49.304;10.576;2023-01-19T10:05:41;9.97;;;7.33;;
11121;SDS011;5615;49.304;10.576;2023-01-19T10:08:15;10.17;;;7.50;;
11121;SDS011;5615;49.304;10.576;2023-01-19T10:10:51;9.27;;;7.13;;
11121;SDS011;5615;49.304;10.576;2023-01-19T10:13:26;10.80;;;7.90;;
11121;SDS011;5615;49.304;10.576;2023-01-19T10:15:59;10.63;;;7.83;;
11121;SDS011;5615;49.304;10.576;2023-01-19T10:18:37;13.90;;;9.63;;
11121;SDS011;5615;49.304;10.576;2023-01-19T10:21:11;16.40;;;10.57;;
11121;SDS011;5615;49.304;10.576;2023-01-19T10:23:42;13.87;;;9.13;;
11121;SDS011;5615;49.304;10.576;2023-01-19T10:26:12;12.50;;;9.50;;
11121;SDS011;5615;49.304;10.576;2023-01-19T10:28:43;11.53;;;8.37;;
11121;SDS011;5615;49.304;10.576;2023-01-19T10:31:11;10.73;;;8.63;;
11121;SDS011;5615;49.304;10.576;2023-01-19T10:33:39;13.70;;;8.27;;
11121;SDS011;5615;49.304;10.576;2023-01-19T10:36:09;10.87;;;7.87;;
11121;SDS011;5615;49.304;10.576;2023-01-19T10:38:42;13.53;;;8.27;;
11121;SDS011;5615;49.304;10.576;2023-01-19T10:41:10;12.40;;;7.90;;
11121;SDS011;5615;49.304;10.576;2023-01-19T10:43:41;15.53;;;8.10;;
11121;SDS011;5615;49.304;10.576;2023-01-19T10:49:00;12.33;;;8.13;;
11121;SDS011;5615;49.304;10.576;2023-01-19T10:51:27;12.97;;;7.40;;
11121;SDS011;5615;49.304;10.576;2023-01-19T10:53:57;12.23;;;7.50;;
11121;SDS011;5615;49.304;10.576;2023-01-19T10:56:26;9.37;;;7.57;;
11121;SDS011;5615;49.304;10.576;2023-01-19T10:58:57;10.63;;;7.10;;
11121;SDS011;5615;49.304;10.576;2023-01-19T11:01:25;8.97;;;6.87;;
11121;SDS011;5615;49.304;10.576;2023-01-19T11:03:55;11.90;;;7.80;;
11121;SDS011;5615;49.304;10.576;2023-01-19T11:06:30;9.47;;;7.27;;
11121;SDS011;5615;49.304;10.576;2023-01-19T11:09:08;19.50;;;14.43;;
11121;SDS011;5615;49.304;10.576;2023-01-19T11:11:40;14.10;;;10.77;;
11121;SDS011;5615;49.304;10.576;2023-01-19T11:14:09;10.90;;;8.30;;
11121;SDS011;5615;49.304;10.576;2023-01-19T11:16:38;10.07;;;7.63;;
11121;SDS011;5615;49.304;10.576;2023-01-19T11:19:13;10.70;;;7.50;;
11121;SDS011;5615;49.304;10.576;2023-01-19T11:21:50;11.17;;;7.73;;
11121;SDS011;5615;49.304;10.576;2023-01-19T11:24:17;13.93;;;8.40;;
11121;SDS011;5615;49.304;10.576;2023-01-19T11:26:46;9.47;;;7.67;;
11121;SDS011;5615;49.304;10.576;2023-01-19T11:29:15;11.40;;;8.53;;
11121;SDS011;5615;49.304;10.576;2023-01-19T11:31:45;11.47;;;7.70;;
11121;SDS011;5615;49.304;10.576;2023-01-19T11:34:23;12.13;;;7.70;;
11121;SDS011;5615;49.304;10.576;2023-01-19T11:36:56;11.07;;;8.17;;
11121;SDS011;5615;49.304;10.576;2023-01-19T11:39:24;10.63;;;7.47;;
11121;SDS011;5615;49.304;10.576;2023-01-19T11:41:54;12.00;;;8.00;;
11121;SDS011;5615;49.304;10.576;2023-01-19T11:44:23;9.67;;;7.60;;
11121;SDS011;5615;49.304;10.576;2023-01-19T11:46:54;11.10;;;8.30;;
11121;SDS011;5615;49.304;10.576;2023-01-19T11:49:26;9.70;;;7.73;;
11121;SDS011;5615;49.304;10.576;2023-01-19T11:51:59;11.30;;;8.10;;
11121;SDS011;5615;49.304;10.576;2023-01-19T11:54:30;12.93;;;7.90;;
11121;SDS011;5615;49.304;10.576;2023-01-19T11:57:06;17.50;;;11.07;;
11121;SDS011;5615;49.304;10.576;2023-01-19T11:59:37;12.27;;;8.27;;
11121;SDS011;5615;49.304;10.576;2023-01-19T12:02:10;29.47;;;17.43;;
11121;SDS011;5615;49.304;10.576;2023-01-19T12:04:47;19.27;;;8.73;;
11121;SDS011;5615;49.304;10.576;2023-01-19T12:07:15;8.83;;;7.00;;
11121;SDS011;5615;49.304;10.576;2023-01-19T12:09:49;35.73;;;22.00;;
11121;SDS011;5615;49.304;10.576;2023-01-19T12:12:23;16.17;;;8.87;;
11121;SDS011;5615;49.304;10.576;2023-01-19T12:14:54;10.07;;;7.80;;
11121;SDS011;5615;49.304;10.576;2023-01-19T12:17:25;11.43;;;7.60;;
11121;SDS011;5615;49.304;10.576;2023-01-19T12:19:55;26.70;;;16.73;;
11121;SDS011;5615;49.304;10.576;2023-01-19T12:22:28;12.97;;;8.60;;
11121;SDS011;5615;49.304;10.576;2023-01-19T12:25:09;9.70;;;6.83;;
11121;SDS011;5615;49.304;10.576;2023-01-19T12:27:41;9.17;;;7.23;;
11121;SDS011;5615;49.304;10.576;2023-01-19T12:30:10;13.70;;;7.93;;
11121;SDS011;5615;49.304;10.576;2023-01-19T12:32:43;9.80;;;6.87;;
11121;SDS011;5615;49.304;10.576;2023-01-19T12:38:22;10.27;;;7.60;;
11121;SDS011;5615;49.304;10.576;2023-01-19T12:41:14;9.63;;;6.30;;
11121;SDS011;5615;49.304;10.576;2023-01-19T12:43:46;10.23;;;5.50;;
11121;SDS011;5615;49.304;10.576;2023-01-19T12:46:19;9.17;;;5.97;;
11121;SDS011;5615;49.304;10.576;2023-01-19T12:48:52;8.50;;;6.00;;
11121;SDS011;5615;49.304;10.576;2023-01-19T12:51:23;13.80;;;6.57;;
11121;SDS011;5615;49.304;10.576;2023-01-19T12:53:52;10.93;;;6.20;;
11121;SDS011;5615;49.304;10.576;2023-01-19T12:56:25;16.40;;;9.60;;
11121;SDS011;5615;49.304;10.576;2023-01-19T12:58:56;48.57;;;25.63;;
11121;SDS011;5615;49.304;10.576;2023-01-19T13:01:23;13.33;;;7.50;;
11121;SDS011;5615;49.304;10.576;2023-01-19T13:03:58;18.33;;;10.27;;
11121;SDS011;5615;49.304;10.576;2023-01-19T13:09:38;10.97;;;7.27;;
11121;SDS011;5615;49.304;10.576;2023-01-19T13:12:10;8.43;;;6.20;;
11121;SDS011;5615;49.304;10.576;2023-01-19T13:14:45;10.73;;;7.40;;
11121;SDS011;5615;49.304;10.576;2023-01-19T13:17:24;11.93;;;6.87;;
11121;SDS011;5615;49.304;10.576;2023-01-19T13:25:46;8.70;;;6.37;;
11121;SDS011;5615;49.304;10.576;2023-01-19T13:28:32;10.60;;;6.73;;
11121;SDS011;5615;49.304;10.576;2023-01-19T13:31:03;8.43;;;6.03;;
11121;SDS011;5615;49.304;10.576;2023-01-19T13:33:34;7.97;;;5.23;;
11121;SDS011;5615;49.304;10.576;2023-01-19T13:36:13;13.73;;;6.80;;
11121;SDS011;5615;49.304;10.576;2023-01-19T13:38:45;8.83;;;6.00;;
11121;SDS011;5615;49.304;10.576;2023-01-19T13:41:15;9.87;;;6.33;;
11121;SDS011;5615;49.304;10.576;2023-01-19T13:43:45;12.13;;;6.27;;
11121;SDS011;5615;49.304;10.576;2023-01-19T13:46:14;11.80;;;5.87;;
11121;SDS011;5615;49.304;10.576;2023-01-19T13:48:50;8.33;;;6.00;;
11121;SDS011;5615;49.304;10.576;2023-01-19T13:51:19;10.50;;;7.10;;
11121;SDS011;5615;49.304;10.576;2023-01-19T13:53:54;16.53;;;11.20;;
11121;SDS011;5615;49.304;10.576;2023-01-19T13:56:24;17.23;;;7.00;;
11121;SDS011;5615;49.304;10.576;2023-01-19T13:58:56;10.03;;;7.40;;
11121;SDS011;5615;49.304;10.576;2023-01-19T14:01:33;9.53;;;6.80;;
11121;SDS011;5615;49.304;10.576;2023-01-19T14:04:01;8.00;;;6.23;;
11121;SDS011;5615;49.304;10.576;2023-01-19T14:06:35;9.13;;;6.00;;
11121;SDS011;5615;49.304;10.576;2023-01-19T14:09:04;8.67;;;6.20;;
11121;SDS011;5615;49.304;10.576;2023-01-19T14:11:41;8.67;;;7.03;;
11121;SDS011;5615;49.304;10.576;2023-01-19T14:14:21;8.60;;;6.40;;
11121;SDS011;5615;49.304;10.576;2023-01-19T14:16:48;7.87;;;5.87;;
11121;SDS011;5615;49.304;10.576;2023-01-19T14:19:15;10.10;;;7.47;;
11121;SDS011;5615;49.304;10.576;2023-01-19T14:21:42;11.57;;;6.73;;
11121;SDS011;5615;49.304;10.576;2023-01-19T14:24:13;11.13;;;7.07;;
11121;SDS011;5615;49.304;10.576;2023-01-19T14:26:44;13.23;;;7.07;;
11121;SDS011;5615;49.304;10.576;2023-01-19T14:29:21;9.90;;;6.43;;
11121;SDS011;5615;49.304;10.576;2023-01-19T14:31:50;13.00;;;7.23;;
11121;SDS011;5615;49.304;10.576;2023-01-19T14:34:30;9.97;;;7.03;;
11121;SDS011;5615;49.304;10.576;2023-01-19T14:36:58;14.60;;;9.97;;
11121;SDS011;5615;49.304;10.576;2023-01-19T14:39:26;14.43;;;8.47;;
11121;SDS011;5615;49.304;10.576;2023-01-19T14:41:57;10.77;;;6.60;;
11121;SDS011;5615;49.304;10.576;2023-01-19T14:44:28;15.00;;;6.77;;
11121;SDS011;5615;49.304;10.576;2023-01-19T14:46:57;10.83;;;6.63;;
11121;SDS011;5615;49.304;10.576;2023-01-19T14:49:28;14.00;;;7.13;;
11121;SDS011;5615;49.304;10.576;2023-01-19T14:51:57;10.33;;;6.97;;
11121;SDS011;5615;49.304;10.576;2023-01-19T14:54:27;8.90;;;6.67;;
11121;SDS011;5615;49.304;10.576;2023-01-19T14:56:58;8.10;;;6.40;;